THY538 DFFD-LTFM
Flight info
| Callsign | THY538 |
|---|---|
| Flight time | N/A |
| Altitude | 31000 |
| Route | DEKAS UQ594 VOSIP/N0458F330 UQ594 NY/N0460F350 UQ594 OSLEK UT258 ERKEL/N0456F360 UR978 BERTI/N0453F350 UB727 IMN M600 ZAW M600 SARKI/N0456F370 DCT ASKOT/N0452F380 DCT DINOB/N0451F370 DCT PEREN UN644 DIGTI T162 DRAMO |
| Aircraft | B38M/M-SADE1E2E3FGHIJ1M3RWY/LB1 |
Departure
| Time | 2026-05-05 02:48 |
|---|---|
| Airport | Ouagadougou Thomas Sankara International Airport (DFFD) |
Arrival
| Time | N/A |
|---|---|
| Airport | İstanbul Airport (LTFM) |
| Time | Latitude | Longitude | Altitude | Speed | Heading |
|---|---|---|---|---|---|
| 2026-05-05 00:24 | 12.35347 | -1.51437 | 1017 ft | 0 kts | 72° |
| 2026-05-05 02:43 | 12.35349 | -1.51432 | 1017 ft | 2 kts | 72° |
| 2026-05-05 02:43 | 12.35337 | -1.51410 | 1017 ft | 7 kts | 155° |
| 2026-05-05 02:43 | 12.35279 | -1.51377 | 1018 ft | 11 kts | 134° |
| 2026-05-05 02:44 | 12.35242 | -1.51316 | 1020 ft | 10 kts | 95° |
| 2026-05-05 02:44 | 12.35277 | -1.51260 | 1020 ft | 10 kts | 35° |
| 2026-05-05 02:44 | 12.35348 | -1.51214 | 1017 ft | 15 kts | 32° |
| 2026-05-05 02:44 | 12.35467 | -1.51134 | 1015 ft | 26 kts | 33° |
| 2026-05-05 02:45 | 12.35618 | -1.51035 | 1013 ft | 27 kts | 32° |
| 2026-05-05 02:45 | 12.35778 | -1.50928 | 1010 ft | 28 kts | 33° |
| 2026-05-05 02:45 | 12.35936 | -1.50823 | 1005 ft | 27 kts | 33° |
| 2026-05-05 02:45 | 12.36083 | -1.50724 | 1006 ft | 26 kts | 33° |
| 2026-05-05 02:46 | 12.36234 | -1.50623 | 994 ft | 25 kts | 33° |
| 2026-05-05 02:46 | 12.36361 | -1.50525 | 995 ft | 19 kts | 54° |
| 2026-05-05 02:46 | 12.36411 | -1.50467 | 991 ft | 6 kts | 350° |
| 2026-05-05 02:46 | 12.36417 | -1.50498 | 991 ft | 5 kts | 246° |
| 2026-05-05 02:47 | 12.36407 | -1.50507 | 993 ft | 0 kts | 214° |
| 2026-05-05 02:47 | 12.36347 | -1.50548 | 991 ft | 36 kts | 214° |
| 2026-05-05 02:47 | 12.35931 | -1.50829 | 1005 ft | 107 kts | 213° |
| 2026-05-05 02:47 | 12.35132 | -1.51363 | 1024 ft | 165 kts | 214° |
| 2026-05-05 02:48 | 12.34117 | -1.52034 | 1603 ft | 177 kts | 214° |
| 2026-05-05 02:48 | 12.33057 | -1.52752 | 2313 ft | 182 kts | 214° |
| 2026-05-05 02:48 | 12.31996 | -1.53466 | 2841 ft | 191 kts | 214° |
| 2026-05-05 02:48 | 12.30836 | -1.54243 | 3083 ft | 213 kts | 214° |
| 2026-05-05 02:49 | 12.29525 | -1.55117 | 3342 ft | 236 kts | 213° |
| 2026-05-05 02:49 | 12.28123 | -1.56055 | 3862 ft | 245 kts | 213° |
| 2026-05-05 02:49 | 12.26648 | -1.57043 | 4247 ft | 261 kts | 212° |
| 2026-05-05 02:49 | 12.24956 | -1.57832 | 4674 ft | 273 kts | 190° |
| 2026-05-05 02:50 | 12.23074 | -1.57715 | 5175 ft | 275 kts | 158° |
| 2026-05-05 02:50 | 12.21492 | -1.56671 | 5709 ft | 276 kts | 130° |
| 2026-05-05 02:50 | 12.20549 | -1.54983 | 6276 ft | 276 kts | 101° |
| 2026-05-05 02:50 | 12.20522 | -1.53052 | 6823 ft | 274 kts | 75° |
| 2026-05-05 02:51 | 12.21240 | -1.51250 | 7200 ft | 274 kts | 65° |
| 2026-05-05 02:51 | 12.22002 | -1.49450 | 7511 ft | 276 kts | 66° |
| 2026-05-05 02:51 | 12.22750 | -1.47637 | 7804 ft | 276 kts | 66° |
| 2026-05-05 02:51 | 12.23488 | -1.45826 | 8097 ft | 277 kts | 67° |
| 2026-05-05 02:52 | 12.24219 | -1.44022 | 8389 ft | 278 kts | 67° |
| 2026-05-05 02:52 | 12.24957 | -1.42195 | 8682 ft | 278 kts | 67° |
| 2026-05-05 02:52 | 12.25695 | -1.40361 | 8983 ft | 279 kts | 67° |
| 2026-05-05 02:52 | 12.26435 | -1.38521 | 9284 ft | 280 kts | 67° |
| 2026-05-05 02:53 | 12.27177 | -1.36675 | 9648 ft | 280 kts | 67° |
| 2026-05-05 02:53 | 12.27919 | -1.34824 | 10057 ft | 282 kts | 67° |
| 2026-05-05 02:53 | 12.28668 | -1.32961 | 10463 ft | 283 kts | 67° |
| 2026-05-05 02:53 | 12.29409 | -1.31114 | 10873 ft | 284 kts | 67° |
| 2026-05-05 02:54 | 12.30169 | -1.29208 | 11201 ft | 298 kts | 68° |
| 2026-05-05 02:54 | 12.30954 | -1.27174 | 11426 ft | 316 kts | 68° |
| 2026-05-05 02:54 | 12.31777 | -1.25031 | 11764 ft | 330 kts | 68° |
| 2026-05-05 02:54 | 12.32628 | -1.22838 | 12415 ft | 331 kts | 67° |
| 2026-05-05 02:55 | 12.33500 | -1.20633 | 13061 ft | 336 kts | 67° |
| 2026-05-05 02:55 | 12.34382 | -1.18413 | 13722 ft | 339 kts | 67° |
| 2026-05-05 02:55 | 12.35273 | -1.16181 | 14127 ft | 342 kts | 67° |
| 2026-05-05 02:55 | 12.36178 | -1.13931 | 14507 ft | 344 kts | 67° |
| 2026-05-05 02:56 | 12.37097 | -1.11644 | 14838 ft | 346 kts | 67° |
| 2026-05-05 02:56 | 12.38011 | -1.09367 | 15170 ft | 348 kts | 67° |
| 2026-05-05 02:56 | 12.38939 | -1.07059 | 15498 ft | 351 kts | 68° |
| 2026-05-05 02:56 | 12.39860 | -1.04761 | 15784 ft | 353 kts | 68° |
| 2026-05-05 02:57 | 12.40795 | -1.02431 | 16090 ft | 355 kts | 68° |
| 2026-05-05 02:57 | 12.41738 | -1.00083 | 16386 ft | 357 kts | 68° |
| 2026-05-05 02:57 | 12.42682 | -0.97731 | 16699 ft | 359 kts | 68° |
| 2026-05-05 02:57 | 12.43623 | -0.95386 | 17008 ft | 361 kts | 68° |
| 2026-05-05 02:58 | 12.44585 | -0.92989 | 17326 ft | 363 kts | 68° |
| 2026-05-05 02:58 | 12.45548 | -0.90588 | 17660 ft | 365 kts | 68° |
| 2026-05-05 02:58 | 12.46518 | -0.88165 | 17997 ft | 368 kts | 68° |
| 2026-05-05 02:58 | 12.47481 | -0.85765 | 18316 ft | 370 kts | 68° |
| 2026-05-05 02:59 | 12.48466 | -0.83308 | 18616 ft | 373 kts | 68° |
| 2026-05-05 02:59 | 12.49455 | -0.80841 | 18917 ft | 375 kts | 68° |
| 2026-05-05 02:59 | 12.50450 | -0.78356 | 19224 ft | 378 kts | 68° |
| 2026-05-05 02:59 | 12.51452 | -0.75853 | 19531 ft | 380 kts | 68° |
| 2026-05-05 03:00 | 12.52458 | -0.73341 | 19848 ft | 383 kts | 68° |
| 2026-05-05 03:00 | 12.53460 | -0.70837 | 20146 ft | 386 kts | 68° |
| 2026-05-05 03:00 | 12.54483 | -0.68280 | 20450 ft | 388 kts | 68° |
| 2026-05-05 03:00 | 12.55510 | -0.65712 | 20755 ft | 390 kts | 68° |
| 2026-05-05 03:01 | 12.56542 | -0.63132 | 21059 ft | 393 kts | 68° |
| 2026-05-05 03:01 | 12.57572 | -0.60556 | 21365 ft | 395 kts | 68° |
| 2026-05-05 03:01 | 12.58617 | -0.57937 | 21618 ft | 398 kts | 68° |
| 2026-05-05 03:01 | 12.59666 | -0.55311 | 21859 ft | 399 kts | 68° |
| 2026-05-05 03:02 | 12.60723 | -0.52668 | 22106 ft | 401 kts | 68° |
| 2026-05-05 03:02 | 12.61771 | -0.50046 | 22346 ft | 402 kts | 68° |
| 2026-05-05 03:02 | 12.62831 | -0.47390 | 22593 ft | 404 kts | 68° |
| 2026-05-05 03:02 | 12.63902 | -0.44709 | 22843 ft | 406 kts | 68° |
| 2026-05-05 03:03 | 12.64977 | -0.42030 | 23116 ft | 408 kts | 68° |
| 2026-05-05 03:03 | 12.66049 | -0.39332 | 23404 ft | 410 kts | 68° |
| 2026-05-05 03:03 | 12.67136 | -0.36607 | 23641 ft | 413 kts | 69° |
| 2026-05-05 03:03 | 12.68206 | -0.33924 | 23872 ft | 415 kts | 68° |
| 2026-05-05 03:04 | 12.69308 | -0.31159 | 24111 ft | 416 kts | 68° |
| 2026-05-05 03:04 | 12.70409 | -0.28399 | 24357 ft | 418 kts | 68° |
| 2026-05-05 03:04 | 12.71514 | -0.25626 | 24604 ft | 420 kts | 68° |
| 2026-05-05 03:04 | 12.72609 | -0.22877 | 24842 ft | 422 kts | 68° |
| 2026-05-05 03:05 | 12.73723 | -0.20089 | 25077 ft | 424 kts | 68° |
| 2026-05-05 03:05 | 12.74841 | -0.17278 | 25330 ft | 426 kts | 68° |
| 2026-05-05 03:05 | 12.75967 | -0.14448 | 25583 ft | 429 kts | 68° |
| 2026-05-05 03:05 | 12.77098 | -0.11607 | 25838 ft | 431 kts | 68° |
| 2026-05-05 03:06 | 12.78220 | -0.08786 | 26105 ft | 432 kts | 68° |
| 2026-05-05 03:06 | 12.79357 | -0.05928 | 26547 ft | 432 kts | 68° |
| 2026-05-05 03:06 | 12.80491 | -0.03076 | 26745 ft | 435 kts | 67° |
| 2026-05-05 03:06 | 12.81550 | -0.00169 | 26951 ft | 436 kts | 73° |
| 2026-05-05 03:07 | 12.82428 | 0.02826 | 27168 ft | 438 kts | 72° |
| 2026-05-05 03:07 | 12.83321 | 0.05794 | 27372 ft | 440 kts | 72° |
| 2026-05-05 03:07 | 12.84237 | 0.08793 | 27586 ft | 443 kts | 72° |
| 2026-05-05 03:07 | 12.85160 | 0.11792 | 27797 ft | 444 kts | 72° |
| 2026-05-05 03:08 | 12.86101 | 0.14850 | 28013 ft | 446 kts | 72° |
| 2026-05-05 03:08 | 12.87037 | 0.17889 | 28233 ft | 448 kts | 72° |
| 2026-05-05 03:08 | 12.87979 | 0.20949 | 28451 ft | 450 kts | 72° |
| 2026-05-05 03:08 | 12.88910 | 0.23975 | 28669 ft | 451 kts | 72° |
| 2026-05-05 03:09 | 12.89856 | 0.27051 | 28894 ft | 453 kts | 72° |
| 2026-05-05 03:09 | 12.90810 | 0.30152 | 29119 ft | 455 kts | 72° |
| 2026-05-05 03:09 | 12.91764 | 0.33256 | 29345 ft | 457 kts | 72° |
| 2026-05-05 03:09 | 12.92715 | 0.36352 | 29566 ft | 460 kts | 72° |
| 2026-05-05 03:10 | 12.93679 | 0.39493 | 29781 ft | 462 kts | 72° |
| 2026-05-05 03:10 | 12.94647 | 0.42650 | 29961 ft | 464 kts | 71° |
| 2026-05-05 03:10 | 12.95620 | 0.45818 | 30123 ft | 465 kts | 71° |
| 2026-05-05 03:10 | 12.96581 | 0.48953 | 30278 ft | 467 kts | 71° |
| 2026-05-05 03:11 | 12.97560 | 0.52148 | 30452 ft | 469 kts | 71° |
| 2026-05-05 03:11 | 12.98541 | 0.55352 | 30612 ft | 471 kts | 71° |
| 2026-05-05 03:11 | 12.99523 | 0.58559 | 30783 ft | 473 kts | 71° |
| 2026-05-05 03:11 | 13.00500 | 0.61752 | 30942 ft | 474 kts | 71° |
| 2026-05-05 03:12 | 13.01502 | 0.65027 | 31117 ft | 476 kts | 71° |
| 2026-05-05 03:12 | 13.02483 | 0.68236 | 31281 ft | 478 kts | 71° |
| 2026-05-05 03:12 | 13.03493 | 0.71541 | 31453 ft | 480 kts | 71° |
| 2026-05-05 03:12 | 13.04485 | 0.74791 | 31620 ft | 483 kts | 71° |
| 2026-05-05 03:13 | 13.05494 | 0.78095 | 31770 ft | 486 kts | 71° |
| 2026-05-05 03:13 | 13.06509 | 0.81420 | 31881 ft | 486 kts | 71° |
| 2026-05-05 03:13 | 13.07518 | 0.84730 | 32012 ft | 486 kts | 71° |
| 2026-05-05 03:13 | 13.08509 | 0.87999 | 32134 ft | 487 kts | 71° |
| 2026-05-05 03:14 | 13.09509 | 0.91322 | 32250 ft | 487 kts | 71° |
| 2026-05-05 03:14 | 13.10508 | 0.94637 | 32382 ft | 487 kts | 71° |
| 2026-05-05 03:14 | 13.11510 | 0.97966 | 32500 ft | 487 kts | 71° |
| 2026-05-05 03:14 | 13.12513 | 1.01297 | 32635 ft | 487 kts | 71° |
| 2026-05-05 03:15 | 13.13516 | 1.04633 | 32764 ft | 487 kts | 71° |
| 2026-05-05 03:15 | 13.14511 | 1.07942 | 32891 ft | 487 kts | 71° |
| 2026-05-05 03:15 | 13.15500 | 1.11232 | 33017 ft | 487 kts | 71° |
| 2026-05-05 03:15 | 13.16503 | 1.14570 | 33146 ft | 487 kts | 71° |
| 2026-05-05 03:16 | 13.17500 | 1.17891 | 33296 ft | 487 kts | 71° |
| 2026-05-05 03:16 | 13.18498 | 1.21215 | 33494 ft | 488 kts | 71° |
| 2026-05-05 03:16 | 13.19501 | 1.24559 | 33681 ft | 488 kts | 71° |
| 2026-05-05 03:16 | 13.20500 | 1.27891 | 33860 ft | 488 kts | 71° |
| 2026-05-05 03:17 | 13.21496 | 1.31217 | 34025 ft | 488 kts | 70° |
| 2026-05-05 03:17 | 13.22496 | 1.34557 | 34190 ft | 488 kts | 71° |
| 2026-05-05 03:17 | 13.23479 | 1.37841 | 34345 ft | 488 kts | 70° |
| 2026-05-05 03:17 | 13.24479 | 1.41182 | 34513 ft | 488 kts | 71° |
| 2026-05-05 03:18 | 13.25479 | 1.44525 | 34679 ft | 488 kts | 71° |
| 2026-05-05 03:18 | 13.26477 | 1.47865 | 34823 ft | 488 kts | 71° |
| 2026-05-05 03:18 | 13.27472 | 1.51195 | 34857 ft | 488 kts | 71° |
| 2026-05-05 03:19 | 13.30628 | 1.61065 | 34832 ft | 482 kts | 60° |
| 2026-05-05 03:19 | 13.33847 | 1.67083 | 34840 ft | 483 kts | 59° |
| 2026-05-05 03:20 | 13.37004 | 1.73145 | 34848 ft | 483 kts | 59° |
| 2026-05-05 03:20 | 13.40168 | 1.79238 | 34846 ft | 483 kts | 59° |
| 2026-05-05 03:21 | 13.43324 | 1.85322 | 34843 ft | 483 kts | 59° |
| 2026-05-05 03:21 | 13.45951 | 1.90389 | 34848 ft | 483 kts | 59° |
| 2026-05-05 03:22 | 13.49622 | 1.97476 | 34854 ft | 483 kts | 59° |
| 2026-05-05 03:22 | 13.52246 | 2.02545 | 34853 ft | 483 kts | 59° |
| 2026-05-05 03:23 | 13.55921 | 2.09649 | 34852 ft | 483 kts | 59° |
| 2026-05-05 03:23 | 13.58569 | 2.14773 | 34858 ft | 483 kts | 59° |
| 2026-05-05 03:24 | 13.61703 | 2.20840 | 34858 ft | 483 kts | 59° |
| 2026-05-05 03:24 | 13.64859 | 2.26955 | 34849 ft | 483 kts | 59° |
| 2026-05-05 03:25 | 13.67995 | 2.33035 | 34849 ft | 483 kts | 59° |
| 2026-05-05 03:25 | 13.71139 | 2.39136 | 34841 ft | 483 kts | 59° |
| 2026-05-05 03:26 | 13.74286 | 2.45247 | 34834 ft | 483 kts | 59° |
| 2026-05-05 03:26 | 13.77441 | 2.51379 | 34836 ft | 484 kts | 59° |
| 2026-05-05 03:27 | 13.80575 | 2.57471 | 34834 ft | 484 kts | 59° |
| 2026-05-05 03:27 | 13.83723 | 2.63597 | 34837 ft | 484 kts | 59° |
| 2026-05-05 03:28 | 13.86878 | 2.69743 | 34833 ft | 484 kts | 59° |
| 2026-05-05 03:28 | 13.90008 | 2.75844 | 34825 ft | 485 kts | 59° |
| 2026-05-05 03:29 | 13.93159 | 2.81990 | 34823 ft | 485 kts | 59° |
| 2026-05-05 03:29 | 13.96292 | 2.88103 | 34822 ft | 485 kts | 59° |
| 2026-05-05 03:30 | 13.99444 | 2.94261 | 34817 ft | 485 kts | 59° |
| 2026-05-05 03:30 | 14.02584 | 3.00400 | 34820 ft | 486 kts | 59° |
| 2026-05-05 03:31 | 14.05723 | 3.06542 | 34816 ft | 486 kts | 59° |
| 2026-05-05 03:31 | 14.08871 | 3.12705 | 34812 ft | 486 kts | 59° |
| 2026-05-05 03:32 | 14.12021 | 3.18878 | 34808 ft | 486 kts | 59° |
| 2026-05-05 03:32 | 14.15172 | 3.25058 | 34808 ft | 486 kts | 60° |
| 2026-05-05 03:33 | 14.18303 | 3.31202 | 34804 ft | 486 kts | 59° |
| 2026-05-05 03:33 | 14.21442 | 3.37368 | 34810 ft | 486 kts | 60° |
| 2026-05-05 03:34 | 14.24577 | 3.43531 | 34799 ft | 486 kts | 59° |
| 2026-05-05 03:34 | 14.28088 | 3.49468 | 34802 ft | 485 kts | 54° |
| 2026-05-05 03:35 | 14.31713 | 3.55338 | 34797 ft | 485 kts | 55° |
| 2026-05-05 03:35 | 14.35316 | 3.61230 | 34796 ft | 485 kts | 55° |
| 2026-05-05 03:36 | 14.38927 | 3.67142 | 34794 ft | 485 kts | 55° |
| 2026-05-05 03:36 | 14.42500 | 3.72999 | 34792 ft | 486 kts | 55° |
| 2026-05-05 03:37 | 14.46107 | 3.78913 | 34788 ft | 486 kts | 55° |
| 2026-05-05 03:37 | 14.49706 | 3.84820 | 34786 ft | 486 kts | 55° |
| 2026-05-05 03:38 | 14.53288 | 3.90703 | 34790 ft | 486 kts | 55° |
| 2026-05-05 03:38 | 14.56894 | 3.96630 | 34782 ft | 486 kts | 55° |
| 2026-05-05 03:39 | 14.60500 | 4.02562 | 34785 ft | 486 kts | 55° |
| 2026-05-05 03:39 | 14.64070 | 4.08438 | 34786 ft | 486 kts | 55° |
| 2026-05-05 03:40 | 14.67671 | 4.14369 | 34781 ft | 486 kts | 55° |
| 2026-05-05 03:40 | 14.71265 | 4.20294 | 34782 ft | 486 kts | 55° |
| 2026-05-05 03:41 | 14.74854 | 4.26216 | 34783 ft | 486 kts | 55° |
| 2026-05-05 03:41 | 14.78421 | 4.32104 | 34784 ft | 486 kts | 55° |
| 2026-05-05 03:42 | 14.82015 | 4.38041 | 34782 ft | 486 kts | 55° |
| 2026-05-05 03:42 | 14.85583 | 4.43942 | 34783 ft | 486 kts | 55° |
| 2026-05-05 03:43 | 14.89176 | 4.49886 | 34781 ft | 486 kts | 55° |
| 2026-05-05 03:43 | 14.92740 | 4.55787 | 34784 ft | 486 kts | 55° |
| 2026-05-05 03:44 | 14.96325 | 4.61731 | 34783 ft | 486 kts | 55° |
| 2026-05-05 03:44 | 14.99909 | 4.67677 | 34784 ft | 486 kts | 55° |
| 2026-05-05 03:45 | 15.03465 | 4.73580 | 34782 ft | 485 kts | 55° |
| 2026-05-05 03:45 | 15.07045 | 4.79526 | 34788 ft | 485 kts | 55° |
| 2026-05-05 03:46 | 15.10595 | 4.85429 | 34786 ft | 485 kts | 55° |
| 2026-05-05 03:46 | 15.14160 | 4.91362 | 34788 ft | 485 kts | 55° |
| 2026-05-05 03:47 | 15.17729 | 4.97303 | 34791 ft | 485 kts | 55° |
| 2026-05-05 03:47 | 15.21273 | 5.03210 | 34790 ft | 484 kts | 55° |
| 2026-05-05 03:48 | 15.24838 | 5.09155 | 34786 ft | 484 kts | 56° |
| 2026-05-05 03:48 | 15.28376 | 5.15060 | 34787 ft | 484 kts | 56° |
| 2026-05-05 03:49 | 15.31921 | 5.20980 | 34793 ft | 484 kts | 56° |
| 2026-05-05 03:49 | 15.35452 | 5.26884 | 34789 ft | 483 kts | 56° |
| 2026-05-05 03:50 | 15.38999 | 5.32817 | 34794 ft | 483 kts | 56° |
| 2026-05-05 03:50 | 15.42521 | 5.38714 | 34798 ft | 483 kts | 56° |
| 2026-05-05 03:51 | 15.46057 | 5.44637 | 34794 ft | 482 kts | 56° |
| 2026-05-05 03:51 | 15.49592 | 5.50566 | 34794 ft | 482 kts | 56° |
| 2026-05-05 03:52 | 15.53125 | 5.56495 | 34797 ft | 482 kts | 56° |
| 2026-05-05 03:52 | 15.56633 | 5.62388 | 34796 ft | 482 kts | 56° |
| 2026-05-05 03:53 | 15.60163 | 5.68320 | 34796 ft | 482 kts | 56° |
| 2026-05-05 03:53 | 15.63677 | 5.74229 | 34800 ft | 482 kts | 56° |
| 2026-05-05 03:54 | 15.67199 | 5.80159 | 34800 ft | 482 kts | 56° |
| 2026-05-05 03:54 | 15.70727 | 5.86105 | 34798 ft | 483 kts | 55° |
| 2026-05-05 03:55 | 15.74234 | 5.92017 | 34804 ft | 483 kts | 55° |
| 2026-05-05 03:55 | 15.77761 | 5.97969 | 34799 ft | 484 kts | 55° |
| 2026-05-05 03:56 | 15.81297 | 6.03942 | 34801 ft | 484 kts | 55° |
| 2026-05-05 03:56 | 15.84801 | 6.09865 | 34803 ft | 485 kts | 55° |
| 2026-05-05 03:57 | 15.88346 | 6.15861 | 34809 ft | 485 kts | 55° |
| 2026-05-05 03:57 | 15.91859 | 6.21809 | 34807 ft | 485 kts | 55° |
| 2026-05-05 03:58 | 15.95405 | 6.27814 | 34815 ft | 486 kts | 55° |
| 2026-05-05 03:58 | 15.99332 | 6.33400 | 34796 ft | 474 kts | 36° |
| 2026-05-05 03:59 | 16.01975 | 6.35402 | 34788 ft | 465 kts | 22° |
| 2026-05-05 03:59 | 16.04948 | 6.36643 | 34820 ft | 456 kts | 11° |
| 2026-05-05 03:59 | 16.11037 | 6.38443 | 34804 ft | 457 kts | 9° |
| 2026-05-05 04:00 | 16.17187 | 6.40111 | 34806 ft | 456 kts | 9° |
| 2026-05-05 04:00 | 16.23340 | 6.41733 | 34806 ft | 455 kts | 9° |
| 2026-05-05 04:01 | 16.29476 | 6.43345 | 34802 ft | 454 kts | 9° |
| 2026-05-05 04:01 | 16.35575 | 6.44949 | 34804 ft | 454 kts | 9° |
| 2026-05-05 04:02 | 16.41682 | 6.46622 | 34800 ft | 452 kts | 8° |
| 2026-05-05 04:02 | 16.47795 | 6.48173 | 34805 ft | 452 kts | 8° |
| 2026-05-05 04:03 | 16.53904 | 6.49774 | 34807 ft | 452 kts | 8° |
| 2026-05-05 04:03 | 16.59965 | 6.51372 | 34806 ft | 451 kts | 8° |
| 2026-05-05 04:04 | 16.66062 | 6.52980 | 34804 ft | 451 kts | 8° |
| 2026-05-05 04:04 | 16.72159 | 6.54589 | 34803 ft | 450 kts | 8° |
| 2026-05-05 04:05 | 16.78217 | 6.56188 | 34803 ft | 450 kts | 8° |
| 2026-05-05 04:05 | 16.84292 | 6.57794 | 34802 ft | 450 kts | 8° |
| 2026-05-05 04:06 | 16.90332 | 6.59392 | 34805 ft | 450 kts | 8° |
| 2026-05-05 04:06 | 16.96412 | 6.61000 | 34804 ft | 450 kts | 8° |
| 2026-05-05 04:07 | 17.02480 | 6.62607 | 34800 ft | 450 kts | 8° |
| 2026-05-05 04:07 | 17.08547 | 6.64215 | 34799 ft | 450 kts | 8° |
| 2026-05-05 04:08 | 17.13596 | 6.65554 | 34803 ft | 450 kts | 8° |
| 2026-05-05 04:08 | 17.19673 | 6.67166 | 34803 ft | 450 kts | 8° |
| 2026-05-05 04:09 | 17.25715 | 6.68770 | 34800 ft | 450 kts | 8° |
| 2026-05-05 04:09 | 17.31791 | 6.70385 | 34800 ft | 450 kts | 8° |
| 2026-05-05 04:10 | 17.37843 | 6.71993 | 34798 ft | 450 kts | 8° |
| 2026-05-05 04:10 | 17.43939 | 6.73615 | 34797 ft | 450 kts | 8° |
| 2026-05-05 04:11 | 17.50021 | 6.75235 | 34800 ft | 451 kts | 8° |
| 2026-05-05 04:11 | 17.56073 | 6.76847 | 34803 ft | 451 kts | 8° |
| 2026-05-05 04:12 | 17.62161 | 6.78470 | 34802 ft | 451 kts | 8° |
| 2026-05-05 04:12 | 17.68217 | 6.80085 | 34800 ft | 451 kts | 8° |
| 2026-05-05 04:13 | 17.74316 | 6.81714 | 34800 ft | 451 kts | 8° |
| 2026-05-05 04:13 | 17.80376 | 6.83332 | 34793 ft | 451 kts | 8° |
| 2026-05-05 04:14 | 17.86464 | 6.84960 | 34794 ft | 451 kts | 8° |
| 2026-05-05 04:14 | 17.92550 | 6.86588 | 34794 ft | 451 kts | 8° |
| 2026-05-05 04:15 | 17.98651 | 6.88222 | 34799 ft | 452 kts | 8° |
| 2026-05-05 04:15 | 18.04717 | 6.89847 | 34800 ft | 452 kts | 8° |
| 2026-05-05 04:16 | 18.10823 | 6.91483 | 34796 ft | 452 kts | 8° |
| 2026-05-05 04:16 | 18.16933 | 6.93123 | 34795 ft | 452 kts | 8° |
| 2026-05-05 04:17 | 18.23011 | 6.94754 | 34795 ft | 453 kts | 8° |
| 2026-05-05 04:17 | 18.29134 | 6.96400 | 34803 ft | 453 kts | 8° |
| 2026-05-05 04:18 | 18.35212 | 6.98033 | 34797 ft | 453 kts | 8° |
| 2026-05-05 04:18 | 18.41348 | 6.99685 | 34796 ft | 454 kts | 8° |
| 2026-05-05 04:19 | 18.47452 | 7.01329 | 34801 ft | 454 kts | 8° |
| 2026-05-05 04:19 | 18.53574 | 7.02978 | 34802 ft | 454 kts | 8° |
| 2026-05-05 04:20 | 18.59710 | 7.04633 | 34802 ft | 455 kts | 8° |
| 2026-05-05 04:20 | 18.65844 | 7.06288 | 34800 ft | 455 kts | 8° |
| 2026-05-05 04:21 | 18.71954 | 7.07938 | 34806 ft | 455 kts | 8° |
| 2026-05-05 04:21 | 18.78099 | 7.09598 | 34809 ft | 455 kts | 8° |
| 2026-05-05 04:22 | 18.84208 | 7.11250 | 34806 ft | 455 kts | 8° |
| 2026-05-05 04:22 | 18.90354 | 7.12914 | 34819 ft | 455 kts | 8° |
| 2026-05-05 04:23 | 18.96477 | 7.14582 | 34801 ft | 456 kts | 8° |
| 2026-05-05 04:23 | 19.02616 | 7.16261 | 34806 ft | 456 kts | 8° |
| 2026-05-05 04:24 | 19.08776 | 7.17946 | 34804 ft | 456 kts | 8° |
| 2026-05-05 04:25 | 19.17974 | 7.20465 | 34807 ft | 456 kts | 8° |
| 2026-05-05 04:25 | 19.24142 | 7.22155 | 34806 ft | 456 kts | 8° |
| 2026-05-05 04:26 | 19.30267 | 7.23836 | 34812 ft | 457 kts | 8° |
| 2026-05-05 04:26 | 19.36440 | 7.25530 | 34810 ft | 457 kts | 8° |
| 2026-05-05 04:27 | 19.42560 | 7.27212 | 34813 ft | 457 kts | 8° |
| 2026-05-05 04:27 | 19.48729 | 7.28908 | 34814 ft | 457 kts | 8° |
| 2026-05-05 04:28 | 19.54899 | 7.30606 | 34817 ft | 457 kts | 8° |
| 2026-05-05 04:28 | 19.61032 | 7.32295 | 34820 ft | 458 kts | 8° |
| 2026-05-05 04:29 | 19.67210 | 7.33998 | 34822 ft | 458 kts | 8° |
| 2026-05-05 04:29 | 19.73376 | 7.35699 | 34823 ft | 458 kts | 8° |
| 2026-05-05 04:30 | 19.79520 | 7.37395 | 34826 ft | 458 kts | 8° |
| 2026-05-05 04:30 | 19.85708 | 7.39104 | 34832 ft | 458 kts | 8° |
| 2026-05-05 04:31 | 19.91887 | 7.40813 | 34831 ft | 458 kts | 8° |
| 2026-05-05 04:31 | 19.98048 | 7.42518 | 34836 ft | 459 kts | 8° |
| 2026-05-05 04:32 | 20.04229 | 7.44230 | 34833 ft | 459 kts | 8° |
| 2026-05-05 04:32 | 20.10401 | 7.45940 | 34840 ft | 459 kts | 8° |
| 2026-05-05 04:33 | 20.16588 | 7.47656 | 34840 ft | 459 kts | 8° |
| 2026-05-05 04:33 | 20.22776 | 7.49375 | 34844 ft | 459 kts | 8° |
| 2026-05-05 04:34 | 20.28920 | 7.51082 | 34846 ft | 459 kts | 8° |
| 2026-05-05 04:34 | 20.35112 | 7.52804 | 34841 ft | 459 kts | 8° |
| 2026-05-05 04:35 | 20.41303 | 7.54527 | 34842 ft | 459 kts | 8° |
| 2026-05-05 04:35 | 20.47442 | 7.56237 | 34847 ft | 459 kts | 8° |
| 2026-05-05 04:36 | 20.53636 | 7.57964 | 34845 ft | 459 kts | 8° |
| 2026-05-05 04:36 | 20.59830 | 7.59692 | 34847 ft | 459 kts | 8° |
| 2026-05-05 04:37 | 20.65961 | 7.61404 | 34848 ft | 458 kts | 8° |
| 2026-05-05 04:37 | 20.72147 | 7.63132 | 34847 ft | 458 kts | 8° |
| 2026-05-05 04:38 | 20.78334 | 7.64863 | 34849 ft | 458 kts | 8° |
| 2026-05-05 04:38 | 20.84477 | 7.66582 | 34847 ft | 458 kts | 8° |
| 2026-05-05 04:39 | 20.90648 | 7.68311 | 34852 ft | 458 kts | 8° |
| 2026-05-05 04:39 | 20.96818 | 7.69678 | 34831 ft | 444 kts | 353° |
| 2026-05-05 04:40 | 21.02912 | 7.69056 | 34851 ft | 438 kts | 347° |
| 2026-05-05 04:40 | 21.08973 | 7.68271 | 34855 ft | 438 kts | 346° |
| 2026-05-05 04:41 | 21.14983 | 7.67441 | 34856 ft | 437 kts | 346° |
| 2026-05-05 04:41 | 21.21027 | 7.66595 | 34857 ft | 437 kts | 346° |
| 2026-05-05 04:42 | 21.27040 | 7.65753 | 34857 ft | 437 kts | 346° |
| 2026-05-05 04:42 | 21.33081 | 7.64907 | 34865 ft | 437 kts | 346° |
| 2026-05-05 04:43 | 21.39128 | 7.64059 | 34867 ft | 437 kts | 346° |
| 2026-05-05 04:43 | 21.45124 | 7.63217 | 34866 ft | 437 kts | 346° |
| 2026-05-05 04:44 | 21.51172 | 7.62367 | 34866 ft | 437 kts | 346° |
| 2026-05-05 04:44 | 21.57178 | 7.61523 | 34873 ft | 437 kts | 346° |
| 2026-05-05 04:45 | 21.63224 | 7.60672 | 34851 ft | 436 kts | 347° |
| 2026-05-05 04:45 | 21.69161 | 7.59865 | 34848 ft | 424 kts | 347° |
| 2026-05-05 04:45 | 21.72075 | 7.59442 | 35003 ft | 424 kts | 346° |
| 2026-05-05 04:46 | 21.74982 | 7.59020 | 34857 ft | 424 kts | 346° |
| 2026-05-05 04:46 | 21.80857 | 7.58186 | 34883 ft | 426 kts | 346° |
| 2026-05-05 04:47 | 21.86699 | 7.57361 | 34880 ft | 425 kts | 346° |
| 2026-05-05 04:47 | 21.92574 | 7.56530 | 34883 ft | 425 kts | 346° |
| 2026-05-05 04:48 | 21.98415 | 7.55704 | 34889 ft | 425 kts | 346° |
| 2026-05-05 04:48 | 22.04284 | 7.54874 | 34890 ft | 425 kts | 346° |
| 2026-05-05 04:49 | 22.10120 | 7.54047 | 34893 ft | 425 kts | 346° |
| 2026-05-05 04:49 | 22.15986 | 7.53216 | 34897 ft | 424 kts | 346° |
| 2026-05-05 04:50 | 22.21854 | 7.52383 | 34896 ft | 424 kts | 346° |
| 2026-05-05 04:50 | 22.27716 | 7.51550 | 34904 ft | 424 kts | 346° |
| 2026-05-05 04:51 | 22.33541 | 7.50721 | 34905 ft | 423 kts | 346° |
| 2026-05-05 04:51 | 22.39391 | 7.49890 | 34910 ft | 423 kts | 346° |
| 2026-05-05 04:52 | 22.45230 | 7.49058 | 34916 ft | 423 kts | 346° |
| 2026-05-05 04:52 | 22.51049 | 7.48230 | 34918 ft | 423 kts | 346° |
| 2026-05-05 04:53 | 22.56900 | 7.47394 | 34920 ft | 423 kts | 346° |
| 2026-05-05 04:53 | 22.62752 | 7.46559 | 34923 ft | 423 kts | 346° |
| 2026-05-05 04:54 | 22.68569 | 7.45728 | 34927 ft | 424 kts | 346° |
| 2026-05-05 04:54 | 22.74419 | 7.44891 | 34930 ft | 423 kts | 346° |
| 2026-05-05 04:55 | 22.80271 | 7.44054 | 34936 ft | 423 kts | 346° |
| 2026-05-05 04:55 | 22.86074 | 7.43222 | 34940 ft | 423 kts | 346° |
| 2026-05-05 04:56 | 22.91941 | 7.42382 | 34944 ft | 423 kts | 345° |
| 2026-05-05 04:56 | 22.97753 | 7.41547 | 34947 ft | 424 kts | 345° |
| 2026-05-05 04:57 | 23.03619 | 7.40705 | 34948 ft | 424 kts | 345° |
| 2026-05-05 04:57 | 23.09439 | 7.39868 | 34948 ft | 423 kts | 345° |
| 2026-05-05 04:58 | 23.14308 | 7.39168 | 34951 ft | 424 kts | 345° |
| 2026-05-05 04:58 | 23.20185 | 7.38321 | 34949 ft | 424 kts | 345° |
| 2026-05-05 04:59 | 23.26028 | 7.37479 | 34944 ft | 424 kts | 345° |
| 2026-05-05 04:59 | 23.31848 | 7.36640 | 34955 ft | 424 kts | 345° |
| 2026-05-05 05:00 | 23.37710 | 7.35794 | 34961 ft | 424 kts | 345° |
| 2026-05-05 05:00 | 23.43566 | 7.34948 | 34965 ft | 424 kts | 345° |
| 2026-05-05 05:01 | 23.49395 | 7.34105 | 34965 ft | 424 kts | 345° |
| 2026-05-05 05:01 | 23.55308 | 7.33474 | 34973 ft | 426 kts | 347° |
| 2026-05-05 05:02 | 23.61227 | 7.32852 | 34966 ft | 426 kts | 347° |
| 2026-05-05 05:02 | 23.67084 | 7.32232 | 34985 ft | 426 kts | 347° |
| 2026-05-05 05:03 | 23.72999 | 7.31605 | 34989 ft | 426 kts | 347° |
| 2026-05-05 05:03 | 23.78912 | 7.30977 | 34980 ft | 426 kts | 347° |
| 2026-05-05 05:04 | 23.84772 | 7.30355 | 34990 ft | 426 kts | 347° |
| 2026-05-05 05:04 | 23.90687 | 7.29726 | 34995 ft | 426 kts | 347° |
| 2026-05-05 05:05 | 23.96590 | 7.29098 | 34993 ft | 426 kts | 347° |
| 2026-05-05 05:05 | 24.02498 | 7.28468 | 35000 ft | 426 kts | 347° |
| 2026-05-05 05:06 | 24.08362 | 7.27843 | 34998 ft | 425 kts | 347° |
| 2026-05-05 05:06 | 24.14280 | 7.27211 | 34997 ft | 426 kts | 347° |
| 2026-05-05 05:07 | 24.20180 | 7.26581 | 34997 ft | 425 kts | 347° |
| 2026-05-05 05:07 | 24.26030 | 7.25955 | 34996 ft | 425 kts | 347° |
| 2026-05-05 05:08 | 24.31907 | 7.25326 | 34989 ft | 425 kts | 347° |
| 2026-05-05 05:08 | 24.37781 | 7.24697 | 34998 ft | 424 kts | 347° |
| 2026-05-05 05:09 | 24.43683 | 7.24064 | 34994 ft | 424 kts | 347° |
| 2026-05-05 05:09 | 24.49569 | 7.23432 | 34995 ft | 424 kts | 347° |
| 2026-05-05 05:10 | 24.55410 | 7.22805 | 34995 ft | 424 kts | 347° |
| 2026-05-05 05:10 | 24.61291 | 7.22172 | 34990 ft | 424 kts | 347° |
| 2026-05-05 05:11 | 24.67144 | 7.21543 | 34992 ft | 424 kts | 347° |
| 2026-05-05 05:11 | 24.73032 | 7.20908 | 34996 ft | 425 kts | 346° |
| 2026-05-05 05:12 | 24.78894 | 7.20276 | 34996 ft | 424 kts | 346° |
| 2026-05-05 05:12 | 24.84776 | 7.19641 | 34998 ft | 424 kts | 346° |
| 2026-05-05 05:13 | 24.90636 | 7.19008 | 35002 ft | 425 kts | 347° |
| 2026-05-05 05:13 | 24.93624 | 7.19004 | 34984 ft | 437 kts | 0° |
| 2026-05-05 05:13 | 24.96624 | 7.19890 | 35005 ft | 454 kts | 15° |
| 2026-05-05 05:13 | 24.99421 | 7.21647 | 35007 ft | 470 kts | 28° |
| 2026-05-05 05:14 | 25.02079 | 7.23775 | 34997 ft | 473 kts | 27° |
| 2026-05-05 05:14 | 25.07380 | 7.28028 | 34999 ft | 474 kts | 28° |
| 2026-05-05 05:15 | 25.12702 | 7.32351 | 35001 ft | 474 kts | 28° |
| 2026-05-05 05:15 | 25.18026 | 7.36684 | 35002 ft | 475 kts | 28° |
| 2026-05-05 05:16 | 25.23317 | 7.40997 | 35013 ft | 475 kts | 28° |
| 2026-05-05 05:16 | 25.28634 | 7.45334 | 35010 ft | 474 kts | 28° |
| 2026-05-05 05:17 | 25.33956 | 7.49680 | 35015 ft | 474 kts | 28° |
| 2026-05-05 05:17 | 25.39236 | 7.53996 | 35016 ft | 474 kts | 28° |
| 2026-05-05 05:18 | 25.44543 | 7.58340 | 35015 ft | 473 kts | 28° |
| 2026-05-05 05:18 | 25.49833 | 7.62675 | 35014 ft | 473 kts | 28° |
| 2026-05-05 05:19 | 25.55088 | 7.66986 | 35013 ft | 472 kts | 28° |
| 2026-05-05 05:19 | 25.60378 | 7.71330 | 35007 ft | 471 kts | 28° |
| 2026-05-05 05:20 | 25.65607 | 7.75629 | 35008 ft | 470 kts | 28° |
| 2026-05-05 05:20 | 25.70857 | 7.79951 | 35002 ft | 470 kts | 28° |
| 2026-05-05 05:21 | 25.76120 | 7.84288 | 35009 ft | 469 kts | 28° |
| 2026-05-05 05:21 | 25.81319 | 7.88577 | 34996 ft | 468 kts | 28° |
| 2026-05-05 05:22 | 25.86544 | 7.92892 | 34988 ft | 467 kts | 27° |
| 2026-05-05 05:22 | 25.91752 | 7.97197 | 34977 ft | 466 kts | 27° |
| 2026-05-05 05:23 | 25.96944 | 8.01494 | 34980 ft | 467 kts | 27° |
| 2026-05-05 05:23 | 26.02161 | 8.05791 | 34965 ft | 465 kts | 27° |
| 2026-05-05 05:24 | 26.07381 | 8.10078 | 34957 ft | 465 kts | 27° |
| 2026-05-05 05:24 | 26.12547 | 8.14327 | 34959 ft | 465 kts | 27° |
| 2026-05-05 05:25 | 26.17757 | 8.18617 | 34945 ft | 464 kts | 27° |
| 2026-05-05 05:25 | 26.22919 | 8.22872 | 34940 ft | 464 kts | 27° |
| 2026-05-05 05:26 | 26.28107 | 8.27153 | 34932 ft | 464 kts | 27° |
| 2026-05-05 05:26 | 26.33292 | 8.31437 | 34928 ft | 464 kts | 27° |
| 2026-05-05 05:27 | 26.38494 | 8.35739 | 34922 ft | 464 kts | 27° |
| 2026-05-05 05:27 | 26.46238 | 8.42155 | 34920 ft | 463 kts | 27° |
| 2026-05-05 05:28 | 26.51415 | 8.46449 | 34913 ft | 463 kts | 27° |
| 2026-05-05 05:28 | 26.56561 | 8.50723 | 34909 ft | 463 kts | 27° |
| 2026-05-05 05:29 | 26.61748 | 8.55035 | 34912 ft | 464 kts | 27° |
| 2026-05-05 05:29 | 26.66924 | 8.59343 | 34914 ft | 464 kts | 27° |
| 2026-05-05 05:30 | 26.72127 | 8.63619 | 34912 ft | 460 kts | 25° |
| 2026-05-05 05:30 | 26.77420 | 8.67590 | 34912 ft | 461 kts | 25° |
| 2026-05-05 05:31 | 26.82743 | 8.71632 | 34915 ft | 461 kts | 25° |
| 2026-05-05 05:31 | 26.88054 | 8.75675 | 34914 ft | 461 kts | 25° |
| 2026-05-05 05:32 | 26.93348 | 8.79708 | 34915 ft | 461 kts | 25° |
| 2026-05-05 05:32 | 26.98638 | 8.83742 | 34910 ft | 461 kts | 25° |
| 2026-05-05 05:33 | 27.03969 | 8.87756 | 34910 ft | 461 kts | 25° |
| 2026-05-05 05:33 | 27.09310 | 8.91787 | 34918 ft | 461 kts | 25° |
| 2026-05-05 05:34 | 27.14641 | 8.95815 | 34914 ft | 461 kts | 25° |
| 2026-05-05 05:34 | 27.19939 | 8.99822 | 34915 ft | 461 kts | 25° |
| 2026-05-05 05:35 | 27.25267 | 9.03857 | 34914 ft | 461 kts | 25° |
| 2026-05-05 05:35 | 27.30591 | 9.07893 | 34918 ft | 461 kts | 26° |
| 2026-05-05 05:36 | 27.35873 | 9.11903 | 34924 ft | 461 kts | 26° |
| 2026-05-05 05:36 | 27.41196 | 9.15948 | 34927 ft | 461 kts | 26° |
| 2026-05-05 05:37 | 27.46520 | 9.19999 | 34927 ft | 461 kts | 26° |
| 2026-05-05 05:37 | 27.51805 | 9.24024 | 34928 ft | 461 kts | 26° |
| 2026-05-05 05:38 | 27.57126 | 9.28083 | 34933 ft | 461 kts | 26° |
| 2026-05-05 05:38 | 27.62419 | 9.32124 | 34934 ft | 461 kts | 26° |
| 2026-05-05 05:39 | 27.67736 | 9.36188 | 34937 ft | 461 kts | 26° |
| 2026-05-05 05:39 | 27.73045 | 9.40252 | 34948 ft | 461 kts | 26° |
| 2026-05-05 05:40 | 27.78367 | 9.44330 | 34950 ft | 461 kts | 26° |
| 2026-05-05 05:40 | 27.83644 | 9.48380 | 34952 ft | 461 kts | 26° |
| 2026-05-05 05:41 | 27.88962 | 9.52465 | 34960 ft | 461 kts | 26° |
| 2026-05-05 05:41 | 27.94267 | 9.56544 | 34967 ft | 461 kts | 26° |
| 2026-05-05 05:42 | 27.99551 | 9.60613 | 34968 ft | 461 kts | 26° |
| 2026-05-05 05:42 | 28.04860 | 9.64703 | 34968 ft | 461 kts | 26° |
| 2026-05-05 05:43 | 28.10324 | 9.68275 | 34971 ft | 454 kts | 20° |
| 2026-05-05 05:43 | 28.15918 | 9.71658 | 34970 ft | 454 kts | 20° |
| 2026-05-05 05:44 | 28.21504 | 9.75021 | 34972 ft | 454 kts | 20° |
| 2026-05-05 05:44 | 28.27066 | 9.78373 | 34972 ft | 454 kts | 20° |
| 2026-05-05 05:45 | 28.31707 | 9.81174 | 34977 ft | 454 kts | 20° |
| 2026-05-05 05:45 | 28.37306 | 9.84556 | 34976 ft | 454 kts | 20° |
| 2026-05-05 05:46 | 28.42863 | 9.87915 | 34978 ft | 454 kts | 20° |
| 2026-05-05 05:46 | 28.48454 | 9.91301 | 34983 ft | 454 kts | 20° |
| 2026-05-05 05:47 | 28.54013 | 9.94670 | 34998 ft | 454 kts | 20° |
| 2026-05-05 05:47 | 28.59613 | 9.98070 | 34991 ft | 454 kts | 20° |
| 2026-05-05 05:48 | 28.65169 | 10.01445 | 34989 ft | 455 kts | 20° |
| 2026-05-05 05:48 | 28.70748 | 10.04840 | 34997 ft | 455 kts | 20° |
| 2026-05-05 05:49 | 28.76344 | 10.08249 | 35002 ft | 454 kts | 20° |
| 2026-05-05 05:49 | 28.81899 | 10.11637 | 35001 ft | 455 kts | 20° |
| 2026-05-05 05:50 | 28.87481 | 10.15046 | 35005 ft | 455 kts | 20° |
| 2026-05-05 05:50 | 28.93069 | 10.18462 | 35006 ft | 455 kts | 20° |
| 2026-05-05 05:51 | 28.98653 | 10.21880 | 35010 ft | 455 kts | 20° |
| 2026-05-05 05:51 | 29.04208 | 10.25285 | 35008 ft | 455 kts | 20° |
| 2026-05-05 05:52 | 29.09800 | 10.28716 | 35011 ft | 455 kts | 20° |
| 2026-05-05 05:52 | 29.15355 | 10.32129 | 35011 ft | 455 kts | 20° |
| 2026-05-05 05:53 | 29.20949 | 10.35571 | 35015 ft | 455 kts | 20° |
| 2026-05-05 05:53 | 29.26546 | 10.39018 | 35015 ft | 455 kts | 19° |
| 2026-05-05 05:54 | 29.32096 | 10.42441 | 35018 ft | 456 kts | 20° |
| 2026-05-05 05:54 | 29.37690 | 10.45896 | 35014 ft | 456 kts | 20° |
| 2026-05-05 05:55 | 29.43288 | 10.49357 | 35015 ft | 456 kts | 19° |
| 2026-05-05 05:55 | 29.48846 | 10.52797 | 35017 ft | 456 kts | 20° |
| 2026-05-05 05:56 | 29.54437 | 10.56263 | 35018 ft | 456 kts | 20° |
| 2026-05-05 05:56 | 29.60035 | 10.59737 | 35019 ft | 456 kts | 20° |
| 2026-05-05 05:57 | 29.65626 | 10.63211 | 35022 ft | 457 kts | 20° |
| 2026-05-05 05:57 | 29.71187 | 10.66671 | 35022 ft | 457 kts | 20° |
| 2026-05-05 05:58 | 29.76768 | 10.70149 | 35021 ft | 457 kts | 20° |
| 2026-05-05 05:58 | 29.82371 | 10.73643 | 35025 ft | 457 kts | 20° |
| 2026-05-05 05:59 | 29.87982 | 10.77147 | 35028 ft | 458 kts | 20° |
| 2026-05-05 05:59 | 29.93555 | 10.80634 | 35037 ft | 458 kts | 20° |
| 2026-05-05 06:00 | 29.99175 | 10.84153 | 35041 ft | 458 kts | 20° |
| 2026-05-05 06:00 | 30.04754 | 10.87650 | 35041 ft | 458 kts | 20° |
| 2026-05-05 06:01 | 30.10378 | 10.91181 | 35046 ft | 459 kts | 20° |
| 2026-05-05 06:01 | 30.15985 | 10.94706 | 35053 ft | 459 kts | 20° |
| 2026-05-05 06:02 | 30.21608 | 10.98246 | 35050 ft | 459 kts | 20° |
| 2026-05-05 06:02 | 30.27194 | 11.01766 | 35055 ft | 459 kts | 20° |
| 2026-05-05 06:03 | 30.32817 | 11.05315 | 35065 ft | 459 kts | 20° |
| 2026-05-05 06:03 | 30.38401 | 11.08843 | 35053 ft | 459 kts | 20° |
| 2026-05-05 06:04 | 30.44017 | 11.12395 | 35061 ft | 459 kts | 20° |
| 2026-05-05 06:04 | 30.45874 | 11.13571 | 35061 ft | 459 kts | 20° |
| 2026-05-05 06:05 | 30.51024 | 11.16835 | 35059 ft | 459 kts | 20° |
| 2026-05-05 06:05 | 30.56606 | 11.20379 | 35060 ft | 459 kts | 20° |
| 2026-05-05 06:06 | 30.62220 | 11.23945 | 35069 ft | 459 kts | 20° |
| 2026-05-05 06:06 | 30.67795 | 11.27491 | 35071 ft | 459 kts | 20° |
| 2026-05-05 06:07 | 30.73412 | 11.31066 | 35071 ft | 459 kts | 20° |
| 2026-05-05 06:07 | 30.79006 | 11.34634 | 35077 ft | 459 kts | 20° |
| 2026-05-05 06:08 | 30.84626 | 11.38221 | 35081 ft | 459 kts | 20° |
| 2026-05-05 06:08 | 30.90234 | 11.41806 | 35082 ft | 460 kts | 20° |
| 2026-05-05 06:09 | 30.95807 | 11.45373 | 35079 ft | 460 kts | 21° |
| 2026-05-05 06:09 | 31.01418 | 11.48970 | 35083 ft | 460 kts | 21° |
| 2026-05-05 06:10 | 31.07037 | 11.52577 | 35084 ft | 460 kts | 21° |
| 2026-05-05 06:10 | 31.12617 | 11.56164 | 35086 ft | 460 kts | 21° |
| 2026-05-05 06:11 | 31.18236 | 11.59780 | 35085 ft | 460 kts | 21° |
| 2026-05-05 06:11 | 31.23847 | 11.63395 | 35087 ft | 460 kts | 21° |
| 2026-05-05 06:12 | 31.29422 | 11.66994 | 35088 ft | 460 kts | 21° |
| 2026-05-05 06:12 | 31.35030 | 11.70617 | 35091 ft | 460 kts | 21° |
| 2026-05-05 06:13 | 31.40605 | 11.74225 | 35092 ft | 460 kts | 21° |
| 2026-05-05 06:13 | 31.46216 | 11.77860 | 35096 ft | 460 kts | 21° |
| 2026-05-05 06:14 | 31.51819 | 11.81496 | 35099 ft | 460 kts | 22° |
| 2026-05-05 06:14 | 31.57398 | 11.85120 | 35097 ft | 460 kts | 22° |
| 2026-05-05 06:15 | 31.62987 | 11.88756 | 35093 ft | 460 kts | 22° |
| 2026-05-05 06:15 | 31.68563 | 11.92389 | 35094 ft | 460 kts | 22° |
| 2026-05-05 06:16 | 31.74177 | 11.96052 | 35093 ft | 460 kts | 22° |
| 2026-05-05 06:16 | 31.79747 | 11.99691 | 35088 ft | 460 kts | 22° |
| 2026-05-05 06:17 | 31.85353 | 12.03358 | 35088 ft | 460 kts | 22° |
| 2026-05-05 06:17 | 31.90956 | 12.07030 | 35083 ft | 460 kts | 22° |
| 2026-05-05 06:18 | 31.96527 | 12.10683 | 35084 ft | 460 kts | 22° |
| 2026-05-05 06:18 | 32.02131 | 12.14365 | 35075 ft | 460 kts | 23° |
| 2026-05-05 06:19 | 32.07733 | 12.18051 | 35071 ft | 460 kts | 23° |
| 2026-05-05 06:19 | 32.13299 | 12.21719 | 35071 ft | 460 kts | 23° |
| 2026-05-05 06:20 | 32.18890 | 12.25407 | 35071 ft | 460 kts | 23° |
| 2026-05-05 06:20 | 32.24460 | 12.29088 | 35069 ft | 460 kts | 23° |
| 2026-05-05 06:21 | 32.30057 | 12.32791 | 35064 ft | 460 kts | 23° |
| 2026-05-05 06:21 | 32.35620 | 12.36476 | 35063 ft | 460 kts | 23° |
| 2026-05-05 06:22 | 32.41203 | 12.40181 | 35058 ft | 460 kts | 24° |
| 2026-05-05 06:22 | 32.46799 | 12.43900 | 35060 ft | 460 kts | 24° |
| 2026-05-05 06:23 | 32.52381 | 12.47614 | 35061 ft | 460 kts | 24° |
| 2026-05-05 06:23 | 32.57932 | 12.51313 | 35061 ft | 460 kts | 24° |
| 2026-05-05 06:24 | 32.63521 | 12.55044 | 35063 ft | 460 kts | 24° |
| 2026-05-05 06:24 | 32.69101 | 12.58771 | 35062 ft | 459 kts | 24° |
| 2026-05-05 06:25 | 32.74640 | 12.62478 | 35061 ft | 459 kts | 24° |
| 2026-05-05 06:25 | 32.80404 | 12.65538 | 35070 ft | 448 kts | 11° |
| 2026-05-05 06:26 | 32.86350 | 12.67775 | 35061 ft | 450 kts | 12° |
| 2026-05-05 06:26 | 32.92320 | 12.69998 | 35063 ft | 450 kts | 12° |
| 2026-05-05 06:27 | 33.01324 | 12.73346 | 35064 ft | 450 kts | 12° |
| 2026-05-05 06:28 | 33.07269 | 12.75558 | 35066 ft | 450 kts | 12° |
| 2026-05-05 06:28 | 33.13289 | 12.77755 | 35065 ft | 450 kts | 12° |
| 2026-05-05 06:29 | 33.19255 | 12.79939 | 35065 ft | 450 kts | 12° |
| 2026-05-05 06:29 | 33.25256 | 12.82139 | 35067 ft | 450 kts | 12° |
| 2026-05-05 06:30 | 33.31251 | 12.84340 | 35070 ft | 451 kts | 12° |
| 2026-05-05 06:30 | 33.37249 | 12.86546 | 35068 ft | 451 kts | 12° |
| 2026-05-05 06:31 | 33.43252 | 12.88756 | 35071 ft | 451 kts | 12° |
| 2026-05-05 06:31 | 33.49228 | 12.90960 | 35071 ft | 451 kts | 12° |
| 2026-05-05 06:32 | 33.55237 | 12.93179 | 35073 ft | 451 kts | 12° |
| 2026-05-05 06:32 | 33.60237 | 12.95028 | 35073 ft | 451 kts | 12° |
| 2026-05-05 06:33 | 33.67228 | 12.97616 | 35074 ft | 451 kts | 12° |
| 2026-05-05 06:33 | 33.73237 | 12.99845 | 35073 ft | 451 kts | 12° |
| 2026-05-05 06:34 | 33.78192 | 13.01860 | 35077 ft | 453 kts | 14° |
| 2026-05-05 06:34 | 33.85137 | 13.04718 | 35077 ft | 453 kts | 14° |
| 2026-05-05 06:35 | 33.90107 | 13.06762 | 35076 ft | 453 kts | 14° |
| 2026-05-05 06:35 | 33.96037 | 13.09202 | 35081 ft | 453 kts | 14° |
| 2026-05-05 06:36 | 34.02021 | 13.11668 | 35084 ft | 453 kts | 14° |
| 2026-05-05 06:36 | 34.07989 | 13.14131 | 35085 ft | 453 kts | 14° |
| 2026-05-05 06:37 | 34.13930 | 13.16587 | 35084 ft | 453 kts | 14° |
| 2026-05-05 06:37 | 34.19905 | 13.19062 | 35090 ft | 453 kts | 14° |
| 2026-05-05 06:38 | 34.25849 | 13.21526 | 35092 ft | 453 kts | 14° |
| 2026-05-05 06:38 | 34.31770 | 13.24179 | 35073 ft | 458 kts | 25° |
| 2026-05-05 06:38 | 34.34367 | 13.26459 | 35093 ft | 466 kts | 40° |
| 2026-05-05 06:39 | 34.36563 | 13.29369 | 35094 ft | 471 kts | 44° |
| 2026-05-05 06:39 | 34.40865 | 13.35321 | 35090 ft | 472 kts | 45° |
| 2026-05-05 06:40 | 34.45138 | 13.41360 | 35100 ft | 472 kts | 46° |
| 2026-05-05 06:40 | 34.49407 | 13.47427 | 35098 ft | 472 kts | 46° |
| 2026-05-05 06:41 | 34.53653 | 13.53469 | 35103 ft | 472 kts | 46° |
| 2026-05-05 06:41 | 34.57909 | 13.59537 | 35104 ft | 472 kts | 46° |
| 2026-05-05 06:42 | 34.62162 | 13.65613 | 35108 ft | 472 kts | 46° |
| 2026-05-05 06:42 | 34.66401 | 13.71679 | 35110 ft | 472 kts | 46° |
| 2026-05-05 06:43 | 34.70656 | 13.77777 | 35114 ft | 472 kts | 46° |
| 2026-05-05 06:43 | 34.74878 | 13.83840 | 35116 ft | 472 kts | 46° |
| 2026-05-05 06:44 | 34.79125 | 13.89948 | 35118 ft | 472 kts | 46° |
| 2026-05-05 06:44 | 34.83339 | 13.96019 | 35122 ft | 472 kts | 46° |
| 2026-05-05 06:45 | 34.87576 | 14.02136 | 35122 ft | 471 kts | 46° |
| 2026-05-05 06:45 | 34.91787 | 14.08224 | 35127 ft | 471 kts | 46° |
| 2026-05-05 06:46 | 34.96019 | 14.14352 | 35131 ft | 471 kts | 46° |
| 2026-05-05 06:46 | 35.00236 | 14.20473 | 35129 ft | 471 kts | 46° |
| 2026-05-05 06:47 | 35.04423 | 14.26559 | 35130 ft | 470 kts | 46° |
| 2026-05-05 06:47 | 35.08630 | 14.32683 | 35137 ft | 470 kts | 46° |
| 2026-05-05 06:48 | 35.12807 | 14.38776 | 35136 ft | 469 kts | 46° |
| 2026-05-05 06:48 | 35.17001 | 14.44906 | 35132 ft | 469 kts | 46° |
| 2026-05-05 06:49 | 35.21176 | 14.51016 | 35134 ft | 469 kts | 46° |
| 2026-05-05 06:49 | 35.25364 | 14.57157 | 35136 ft | 468 kts | 46° |
| 2026-05-05 06:50 | 35.29539 | 14.63290 | 35136 ft | 468 kts | 46° |
| 2026-05-05 06:50 | 35.33685 | 14.69391 | 35141 ft | 468 kts | 46° |
| 2026-05-05 06:51 | 35.37822 | 14.75491 | 35133 ft | 467 kts | 46° |
| 2026-05-05 06:51 | 35.41981 | 14.81633 | 35134 ft | 467 kts | 46° |
| 2026-05-05 06:52 | 35.46131 | 14.87773 | 35287 ft | 466 kts | 46° |
| 2026-05-05 06:52 | 35.48199 | 14.90837 | 35481 ft | 467 kts | 46° |
| 2026-05-05 06:52 | 35.50279 | 14.93920 | 35678 ft | 467 kts | 46° |
| 2026-05-05 06:52 | 35.52343 | 14.96985 | 35872 ft | 467 kts | 46° |
| 2026-05-05 06:53 | 35.54417 | 15.00065 | 36069 ft | 466 kts | 46° |
| 2026-05-05 06:53 | 35.56480 | 15.03132 | 36268 ft | 466 kts | 46° |
| 2026-05-05 06:53 | 35.58526 | 15.06176 | 36469 ft | 466 kts | 46° |
| 2026-05-05 06:53 | 35.60597 | 15.09261 | 36672 ft | 466 kts | 46° |
| 2026-05-05 06:54 | 35.62663 | 15.12340 | 36875 ft | 468 kts | 46° |
| 2026-05-05 06:54 | 35.64739 | 15.15437 | 37072 ft | 470 kts | 46° |
| 2026-05-05 06:54 | 35.66825 | 15.18553 | 37271 ft | 472 kts | 46° |
| 2026-05-05 06:54 | 35.68912 | 15.21672 | 37469 ft | 473 kts | 46° |
| 2026-05-05 06:55 | 35.70984 | 15.24772 | 37665 ft | 474 kts | 46° |
| 2026-05-05 06:55 | 35.73085 | 15.27919 | 37875 ft | 474 kts | 46° |
| 2026-05-05 06:55 | 35.75179 | 15.31057 | 38067 ft | 474 kts | 46° |
| 2026-05-05 06:55 | 35.77270 | 15.34194 | 38178 ft | 474 kts | 46° |
| 2026-05-05 06:56 | 35.79350 | 15.37317 | 38144 ft | 472 kts | 46° |
| 2026-05-05 06:56 | 35.83447 | 15.43476 | 38158 ft | 472 kts | 47° |
| 2026-05-05 06:57 | 35.87613 | 15.49753 | 38159 ft | 471 kts | 47° |
| 2026-05-05 06:57 | 35.91738 | 15.55978 | 38157 ft | 471 kts | 47° |
| 2026-05-05 06:58 | 35.95886 | 15.62250 | 38160 ft | 471 kts | 47° |
| 2026-05-05 06:58 | 36.00033 | 15.68530 | 38158 ft | 470 kts | 47° |
| 2026-05-05 06:59 | 36.04135 | 15.74755 | 38160 ft | 470 kts | 47° |
| 2026-05-05 06:59 | 36.08261 | 15.81027 | 38161 ft | 470 kts | 47° |
| 2026-05-05 07:00 | 36.12377 | 15.87294 | 38164 ft | 470 kts | 47° |
| 2026-05-05 07:00 | 36.16494 | 15.93577 | 38160 ft | 470 kts | 47° |
| 2026-05-05 07:01 | 36.20622 | 15.99888 | 38158 ft | 470 kts | 47° |
| 2026-05-05 07:01 | 36.24736 | 16.06188 | 38157 ft | 470 kts | 46° |
| 2026-05-05 07:02 | 36.28814 | 16.12448 | 38163 ft | 470 kts | 46° |
| 2026-05-05 07:02 | 36.32929 | 16.18776 | 38139 ft | 470 kts | 46° |
| 2026-05-05 07:03 | 36.37042 | 16.25100 | 38165 ft | 470 kts | 46° |
| 2026-05-05 07:03 | 36.41125 | 16.31394 | 38157 ft | 470 kts | 46° |
| 2026-05-05 07:04 | 36.45233 | 16.37741 | 38159 ft | 470 kts | 46° |
| 2026-05-05 07:04 | 36.49304 | 16.44036 | 38160 ft | 470 kts | 45° |
| 2026-05-05 07:05 | 36.54009 | 16.49529 | 38154 ft | 463 kts | 37° |
| 2026-05-05 07:05 | 36.58828 | 16.54855 | 38158 ft | 463 kts | 36° |
| 2026-05-05 07:06 | 36.63629 | 16.60153 | 38159 ft | 463 kts | 36° |
| 2026-05-05 07:06 | 36.68459 | 16.65492 | 38159 ft | 463 kts | 36° |
| 2026-05-05 07:07 | 36.73278 | 16.70830 | 38157 ft | 463 kts | 36° |
| 2026-05-05 07:07 | 36.78063 | 16.76137 | 38157 ft | 463 kts | 36° |
| 2026-05-05 07:08 | 36.82884 | 16.81494 | 38157 ft | 463 kts | 36° |
| 2026-05-05 07:08 | 36.87698 | 16.86852 | 38156 ft | 462 kts | 37° |
| 2026-05-05 07:09 | 36.92480 | 16.92184 | 38156 ft | 462 kts | 37° |
| 2026-05-05 07:09 | 36.97260 | 16.97525 | 38156 ft | 462 kts | 37° |
| 2026-05-05 07:10 | 37.01984 | 17.02811 | 38155 ft | 462 kts | 37° |
| 2026-05-05 07:10 | 37.06768 | 17.08174 | 38155 ft | 461 kts | 37° |
| 2026-05-05 07:11 | 37.11557 | 17.13551 | 38155 ft | 461 kts | 37° |
| 2026-05-05 07:11 | 37.16299 | 17.18886 | 38156 ft | 460 kts | 37° |
| 2026-05-05 07:12 | 37.21073 | 17.24266 | 38155 ft | 460 kts | 37° |
| 2026-05-05 07:12 | 37.25802 | 17.29605 | 38160 ft | 459 kts | 37° |
| 2026-05-05 07:13 | 37.30560 | 17.34986 | 38156 ft | 459 kts | 37° |
| 2026-05-05 07:13 | 37.35283 | 17.40337 | 38151 ft | 459 kts | 37° |
| 2026-05-05 07:14 | 37.40024 | 17.45718 | 38148 ft | 459 kts | 37° |
| 2026-05-05 07:14 | 37.44775 | 17.51120 | 38151 ft | 458 kts | 37° |
| 2026-05-05 07:15 | 37.49471 | 17.56467 | 38149 ft | 458 kts | 37° |
| 2026-05-05 07:15 | 37.54215 | 17.61881 | 38149 ft | 458 kts | 37° |
| 2026-05-05 07:16 | 37.58914 | 17.67253 | 38149 ft | 458 kts | 37° |
| 2026-05-05 07:16 | 37.63634 | 17.72657 | 38149 ft | 458 kts | 37° |
| 2026-05-05 07:17 | 37.68351 | 17.78068 | 38147 ft | 458 kts | 37° |
| 2026-05-05 07:17 | 37.73069 | 17.83490 | 38141 ft | 457 kts | 37° |
| 2026-05-05 07:18 | 37.77745 | 17.88874 | 38152 ft | 457 kts | 37° |
| 2026-05-05 07:18 | 37.82447 | 17.94297 | 38151 ft | 457 kts | 37° |
| 2026-05-05 07:19 | 37.87136 | 17.99714 | 38148 ft | 457 kts | 37° |
| 2026-05-05 07:19 | 37.91839 | 18.05158 | 38150 ft | 457 kts | 37° |
| 2026-05-05 07:20 | 37.96515 | 18.10581 | 38146 ft | 457 kts | 38° |
| 2026-05-05 07:20 | 38.01201 | 18.16024 | 38154 ft | 456 kts | 38° |
| 2026-05-05 07:21 | 38.05871 | 18.21460 | 38147 ft | 456 kts | 38° |
| 2026-05-05 07:21 | 38.10521 | 18.26880 | 38149 ft | 456 kts | 38° |
| 2026-05-05 07:22 | 38.15193 | 18.32339 | 38152 ft | 456 kts | 38° |
| 2026-05-05 07:22 | 38.19083 | 18.36891 | 38145 ft | 456 kts | 38° |
| 2026-05-05 07:23 | 38.24517 | 18.43259 | 38148 ft | 456 kts | 38° |
| 2026-05-05 07:23 | 38.28394 | 18.47813 | 38147 ft | 456 kts | 38° |
| 2026-05-05 07:24 | 38.33058 | 18.53298 | 38146 ft | 456 kts | 38° |
| 2026-05-05 07:24 | 38.37725 | 18.58797 | 38147 ft | 456 kts | 38° |
| 2026-05-05 07:25 | 38.42371 | 18.64283 | 38143 ft | 456 kts | 38° |
| 2026-05-05 07:25 | 38.47026 | 18.69788 | 38151 ft | 456 kts | 38° |
| 2026-05-05 07:26 | 38.51664 | 18.75284 | 38148 ft | 456 kts | 38° |
| 2026-05-05 07:26 | 38.56313 | 18.80800 | 38152 ft | 456 kts | 38° |
| 2026-05-05 07:27 | 38.60960 | 18.86324 | 38144 ft | 456 kts | 38° |
| 2026-05-05 07:27 | 38.65517 | 18.91750 | 38153 ft | 456 kts | 38° |
| 2026-05-05 07:28 | 38.70174 | 18.97306 | 38142 ft | 456 kts | 38° |
| 2026-05-05 07:28 | 38.72319 | 19.00319 | 38122 ft | 464 kts | 52° |
| 2026-05-05 07:28 | 38.73910 | 19.03960 | 38162 ft | 468 kts | 56° |
| 2026-05-05 07:29 | 38.76997 | 19.11274 | 38148 ft | 470 kts | 57° |
| 2026-05-05 07:29 | 38.80044 | 19.18711 | 38144 ft | 470 kts | 57° |
| 2026-05-05 07:30 | 38.83069 | 19.26163 | 38152 ft | 470 kts | 57° |
| 2026-05-05 07:30 | 38.87580 | 19.37307 | 38153 ft | 470 kts | 57° |
| 2026-05-05 07:31 | 38.90571 | 19.44720 | 38149 ft | 470 kts | 57° |
| 2026-05-05 07:31 | 38.93572 | 19.52176 | 38150 ft | 470 kts | 57° |
| 2026-05-05 07:32 | 38.96572 | 19.59647 | 38151 ft | 470 kts | 58° |
| 2026-05-05 07:32 | 38.99555 | 19.67098 | 38155 ft | 470 kts | 57° |
| 2026-05-05 07:33 | 39.02542 | 19.74571 | 38156 ft | 470 kts | 57° |
| 2026-05-05 07:33 | 39.05526 | 19.82058 | 38150 ft | 469 kts | 57° |
| 2026-05-05 07:34 | 39.08505 | 19.89551 | 38151 ft | 469 kts | 57° |
| 2026-05-05 07:34 | 39.11457 | 19.96991 | 38150 ft | 469 kts | 57° |
| 2026-05-05 07:35 | 39.14427 | 20.04499 | 38149 ft | 469 kts | 57° |
| 2026-05-05 07:35 | 39.17370 | 20.11954 | 38153 ft | 469 kts | 57° |
| 2026-05-05 07:36 | 39.20329 | 20.19468 | 38146 ft | 468 kts | 57° |
| 2026-05-05 07:36 | 39.23267 | 20.26948 | 38148 ft | 468 kts | 57° |
| 2026-05-05 07:37 | 39.26202 | 20.34439 | 38144 ft | 468 kts | 57° |
| 2026-05-05 07:37 | 39.29136 | 20.41948 | 38153 ft | 467 kts | 57° |
| 2026-05-05 07:38 | 39.32045 | 20.49408 | 38143 ft | 467 kts | 57° |
| 2026-05-05 07:38 | 39.34973 | 20.56938 | 38139 ft | 467 kts | 57° |
| 2026-05-05 07:39 | 39.37865 | 20.64392 | 38154 ft | 466 kts | 57° |
| 2026-05-05 07:39 | 39.40776 | 20.71917 | 38151 ft | 466 kts | 57° |
| 2026-05-05 07:40 | 39.43682 | 20.79445 | 38163 ft | 467 kts | 57° |
| 2026-05-05 07:40 | 39.46563 | 20.86924 | 38168 ft | 466 kts | 57° |
| 2026-05-05 07:41 | 39.49453 | 20.94453 | 38172 ft | 466 kts | 57° |
| 2026-05-05 07:41 | 39.52325 | 21.01947 | 38167 ft | 466 kts | 57° |
| 2026-05-05 07:42 | 39.55204 | 21.09481 | 38171 ft | 466 kts | 57° |
| 2026-05-05 07:42 | 39.58076 | 21.17014 | 38157 ft | 465 kts | 57° |
| 2026-05-05 07:43 | 39.60944 | 21.24557 | 38159 ft | 465 kts | 57° |
| 2026-05-05 07:43 | 39.63782 | 21.32041 | 38134 ft | 465 kts | 57° |
| 2026-05-05 07:44 | 39.66634 | 21.39577 | 38152 ft | 465 kts | 57° |
| 2026-05-05 07:44 | 39.69465 | 21.47083 | 38150 ft | 464 kts | 57° |
| 2026-05-05 07:45 | 39.72306 | 21.54630 | 38153 ft | 463 kts | 57° |
| 2026-05-05 07:45 | 39.75133 | 21.62158 | 38139 ft | 462 kts | 57° |
| 2026-05-05 07:46 | 39.77930 | 21.69627 | 38141 ft | 462 kts | 58° |
| 2026-05-05 07:46 | 39.80748 | 21.77172 | 38141 ft | 461 kts | 58° |
| 2026-05-05 07:47 | 39.83531 | 21.84639 | 38139 ft | 460 kts | 58° |
| 2026-05-05 07:47 | 39.86321 | 21.92147 | 38139 ft | 460 kts | 58° |
| 2026-05-05 07:48 | 39.89109 | 21.99668 | 38132 ft | 460 kts | 58° |
| 2026-05-05 07:48 | 39.91868 | 22.07129 | 38118 ft | 459 kts | 58° |
| 2026-05-05 07:49 | 39.94643 | 22.14653 | 38124 ft | 459 kts | 58° |
| 2026-05-05 07:49 | 39.97395 | 22.22135 | 38126 ft | 459 kts | 58° |
| 2026-05-05 07:50 | 40.00153 | 22.29651 | 38198 ft | 459 kts | 59° |
| 2026-05-05 07:50 | 40.01529 | 22.33406 | 38406 ft | 458 kts | 58° |
| 2026-05-05 07:50 | 40.02903 | 22.37163 | 38663 ft | 458 kts | 59° |
| 2026-05-05 07:51 | 40.04257 | 22.40871 | 38853 ft | 457 kts | 59° |
| 2026-05-05 07:51 | 40.05626 | 22.44623 | 39032 ft | 457 kts | 59° |
| 2026-05-05 07:51 | 40.08372 | 22.52162 | 39117 ft | 460 kts | 59° |
| 2026-05-05 07:52 | 40.11094 | 22.59661 | 39104 ft | 461 kts | 59° |
| 2026-05-05 07:52 | 40.13841 | 22.67243 | 39098 ft | 461 kts | 59° |
| 2026-05-05 07:53 | 40.16588 | 22.74844 | 39091 ft | 461 kts | 60° |
| 2026-05-05 07:53 | 40.19300 | 22.82371 | 39094 ft | 461 kts | 60° |
| 2026-05-05 07:54 | 40.21904 | 22.89613 | 39092 ft | 461 kts | 60° |
| 2026-05-05 07:54 | 40.24633 | 22.97227 | 39094 ft | 461 kts | 60° |
| 2026-05-05 07:55 | 40.27340 | 23.04797 | 39094 ft | 461 kts | 60° |
| 2026-05-05 07:55 | 40.30064 | 23.12436 | 39096 ft | 461 kts | 60° |
| 2026-05-05 07:56 | 40.32779 | 23.20068 | 39092 ft | 461 kts | 60° |
| 2026-05-05 07:56 | 40.35469 | 23.27650 | 39093 ft | 461 kts | 60° |
| 2026-05-05 07:57 | 40.38171 | 23.35288 | 39087 ft | 461 kts | 60° |
| 2026-05-05 07:57 | 40.40856 | 23.42895 | 39088 ft | 461 kts | 60° |
| 2026-05-05 07:58 | 40.43554 | 23.50559 | 39084 ft | 461 kts | 61° |
| 2026-05-05 07:58 | 40.46247 | 23.58221 | 39084 ft | 461 kts | 61° |
| 2026-05-05 07:59 | 40.48920 | 23.65851 | 39086 ft | 462 kts | 61° |
| 2026-05-05 07:59 | 40.51605 | 23.73535 | 39079 ft | 462 kts | 61° |
| 2026-05-05 08:00 | 40.54278 | 23.81203 | 39078 ft | 461 kts | 61° |
| 2026-05-05 08:00 | 40.56948 | 23.88884 | 39070 ft | 461 kts | 61° |
| 2026-05-05 08:01 | 40.59570 | 23.96543 | 39062 ft | 463 kts | 66° |
| 2026-05-05 08:01 | 40.61521 | 24.04657 | 39073 ft | 465 kts | 69° |
| 2026-05-05 08:02 | 40.63426 | 24.12751 | 39081 ft | 465 kts | 69° |
| 2026-05-05 08:02 | 40.65337 | 24.20909 | 39079 ft | 465 kts | 69° |
| 2026-05-05 08:03 | 40.67234 | 24.29039 | 39074 ft | 464 kts | 69° |
| 2026-05-05 08:03 | 40.69116 | 24.37135 | 39073 ft | 464 kts | 69° |
| 2026-05-05 08:04 | 40.71002 | 24.45279 | 39076 ft | 464 kts | 69° |
| 2026-05-05 08:04 | 40.72893 | 24.53468 | 39078 ft | 464 kts | 69° |
| 2026-05-05 08:05 | 40.74757 | 24.61573 | 39077 ft | 464 kts | 69° |
| 2026-05-05 08:05 | 40.76628 | 24.69736 | 39080 ft | 464 kts | 70° |
| 2026-05-05 08:06 | 40.78487 | 24.77872 | 39075 ft | 464 kts | 70° |
| 2026-05-05 08:06 | 40.80345 | 24.86026 | 39081 ft | 464 kts | 70° |
| 2026-05-05 08:07 | 40.82190 | 24.94160 | 39083 ft | 464 kts | 70° |
| 2026-05-05 08:07 | 40.84041 | 25.02343 | 39086 ft | 464 kts | 70° |
| 2026-05-05 08:08 | 40.85888 | 25.10544 | 39087 ft | 464 kts | 70° |
| 2026-05-05 08:08 | 40.87714 | 25.18680 | 39089 ft | 464 kts | 70° |
| 2026-05-05 08:09 | 40.89547 | 25.26875 | 39082 ft | 464 kts | 70° |
| 2026-05-05 08:09 | 40.91379 | 25.35087 | 39082 ft | 464 kts | 70° |
| 2026-05-05 08:10 | 40.93193 | 25.43245 | 38952 ft | 462 kts | 70° |
| 2026-05-05 08:10 | 40.94092 | 25.47298 | 38522 ft | 455 kts | 70° |
| 2026-05-05 08:10 | 40.94978 | 25.51297 | 37964 ft | 451 kts | 70° |
| 2026-05-05 08:11 | 40.95856 | 25.55270 | 37414 ft | 448 kts | 70° |
| 2026-05-05 08:11 | 40.96722 | 25.59196 | 36877 ft | 449 kts | 70° |
| 2026-05-05 08:11 | 40.97595 | 25.63165 | 36349 ft | 450 kts | 70° |
| 2026-05-05 08:11 | 40.98474 | 25.67162 | 35834 ft | 450 kts | 70° |
| 2026-05-05 08:12 | 40.99055 | 25.69807 | 35511 ft | 451 kts | 70° |
| 2026-05-05 08:12 | 40.99929 | 25.73799 | 35009 ft | 451 kts | 70° |
| 2026-05-05 08:12 | 41.01088 | 25.79102 | 34363 ft | 451 kts | 70° |
| 2026-05-05 08:12 | 41.01667 | 25.81754 | 34037 ft | 451 kts | 70° |
| 2026-05-05 08:13 | 41.02537 | 25.85745 | 33486 ft | 452 kts | 70° |
| 2026-05-05 08:13 | 41.03408 | 25.89753 | 32938 ft | 453 kts | 70° |
| 2026-05-05 08:13 | 41.04279 | 25.93764 | 32391 ft | 454 kts | 70° |
| 2026-05-05 08:13 | 41.05158 | 25.97821 | 31876 ft | 455 kts | 70° |
| 2026-05-05 08:14 | 41.06030 | 26.01854 | 31363 ft | 456 kts | 70° |
| 2026-05-05 08:14 | 41.06906 | 26.05910 | 30854 ft | 457 kts | 70° |
| 2026-05-05 08:14 | 41.07780 | 26.09969 | 30366 ft | 459 kts | 70° |
| 2026-05-05 08:14 | 41.08647 | 26.14000 | 29818 ft | 461 kts | 71° |
| 2026-05-05 08:15 | 41.09528 | 26.18102 | 29238 ft | 462 kts | 71° |
| 2026-05-05 08:15 | 41.10410 | 26.22216 | 28662 ft | 464 kts | 71° |
| 2026-05-05 08:15 | 41.11296 | 26.26355 | 28098 ft | 467 kts | 71° |
| 2026-05-05 08:15 | 41.11948 | 26.30585 | 27518 ft | 473 kts | 84° |
| 2026-05-05 08:16 | 41.11657 | 26.34962 | 26960 ft | 481 kts | 103° |
| 2026-05-05 08:16 | 41.10450 | 26.39065 | 26432 ft | 486 kts | 114° |
| 2026-05-05 08:16 | 41.09093 | 26.43196 | 25886 ft | 488 kts | 111° |
| 2026-05-05 08:16 | 41.07775 | 26.47356 | 25371 ft | 489 kts | 111° |
| 2026-05-05 08:17 | 41.06465 | 26.51517 | 25112 ft | 489 kts | 111° |
| 2026-05-05 08:17 | 41.05152 | 26.55691 | 25047 ft | 490 kts | 111° |
| 2026-05-05 08:17 | 41.03927 | 26.59901 | 25061 ft | 489 kts | 103° |
| 2026-05-05 08:17 | 41.03477 | 26.64276 | 25070 ft | 484 kts | 87° |
| 2026-05-05 08:18 | 41.03600 | 26.68767 | 25086 ft | 474 kts | 86° |
| 2026-05-05 08:18 | 41.03682 | 26.73050 | 24874 ft | 459 kts | 86° |
| 2026-05-05 08:18 | 41.03760 | 26.77187 | 24494 ft | 451 kts | 86° |
| 2026-05-05 08:18 | 41.03838 | 26.81326 | 24018 ft | 445 kts | 86° |
| 2026-05-05 08:19 | 41.03913 | 26.85422 | 23419 ft | 443 kts | 85° |
| 2026-05-05 08:19 | 41.04327 | 26.89413 | 22842 ft | 432 kts | 70° |
| 2026-05-05 08:19 | 41.05563 | 26.92970 | 22398 ft | 418 kts | 55° |
| 2026-05-05 08:19 | 41.07039 | 26.96267 | 21811 ft | 415 kts | 56° |
| 2026-05-05 08:20 | 41.08489 | 26.99491 | 21299 ft | 410 kts | 56° |
| 2026-05-05 08:20 | 41.09956 | 27.02710 | 20870 ft | 403 kts | 55° |
| 2026-05-05 08:20 | 41.11400 | 27.05867 | 20410 ft | 398 kts | 55° |
| 2026-05-05 08:20 | 41.12810 | 27.08945 | 19967 ft | 392 kts | 55° |
| 2026-05-05 08:21 | 41.14233 | 27.12061 | 19511 ft | 387 kts | 56° |
| 2026-05-05 08:21 | 41.15609 | 27.15069 | 19101 ft | 382 kts | 56° |
| 2026-05-05 08:21 | 41.16828 | 27.18175 | 18721 ft | 380 kts | 68° |
| 2026-05-05 08:21 | 41.17150 | 27.21678 | 18421 ft | 381 kts | 92° |
| 2026-05-05 08:22 | 41.16419 | 27.24953 | 18246 ft | 380 kts | 114° |
| 2026-05-05 08:22 | 41.14771 | 27.27721 | 17986 ft | 379 kts | 136° |
| 2026-05-05 08:22 | 41.12513 | 27.29572 | 17484 ft | 382 kts | 149° |
| 2026-05-05 08:22 | 41.10245 | 27.31309 | 17023 ft | 380 kts | 147° |
| 2026-05-05 08:23 | 41.07980 | 27.33094 | 16574 ft | 377 kts | 146° |
| 2026-05-05 08:23 | 41.05723 | 27.34881 | 16154 ft | 375 kts | 146° |
| 2026-05-05 08:23 | 41.03490 | 27.36652 | 15747 ft | 373 kts | 146° |
| 2026-05-05 08:23 | 41.01267 | 27.38415 | 15340 ft | 371 kts | 146° |
| 2026-05-05 08:24 | 40.99056 | 27.40167 | 14942 ft | 369 kts | 146° |
| 2026-05-05 08:24 | 40.96981 | 27.42055 | 14523 ft | 363 kts | 132° |
| 2026-05-05 08:24 | 40.95574 | 27.44739 | 14142 ft | 350 kts | 108° |
| 2026-05-05 08:24 | 40.94721 | 27.47738 | 13681 ft | 348 kts | 107° |
| 2026-05-05 08:25 | 40.93842 | 27.50720 | 13287 ft | 346 kts | 107° |
| 2026-05-05 08:25 | 40.92975 | 27.53646 | 12871 ft | 343 kts | 107° |
| 2026-05-05 08:25 | 40.92100 | 27.56597 | 12457 ft | 341 kts | 107° |
| 2026-05-05 08:25 | 40.91244 | 27.59479 | 12049 ft | 338 kts | 106° |
| 2026-05-05 08:26 | 40.90779 | 27.62454 | 11649 ft | 326 kts | 86° |
| 2026-05-05 08:26 | 40.90723 | 27.65450 | 11207 ft | 325 kts | 87° |
| 2026-05-05 08:26 | 40.90637 | 27.68427 | 10833 ft | 322 kts | 87° |
| 2026-05-05 08:26 | 40.90551 | 27.71378 | 10448 ft | 320 kts | 87° |
| 2026-05-05 08:27 | 40.90466 | 27.74266 | 10144 ft | 316 kts | 87° |
| 2026-05-05 08:27 | 40.90589 | 27.77122 | 9982 ft | 299 kts | 73° |
| 2026-05-05 08:27 | 40.90983 | 27.79733 | 9856 ft | 289 kts | 73° |
| 2026-05-05 08:27 | 40.91355 | 27.82304 | 9713 ft | 279 kts | 73° |
| 2026-05-05 08:28 | 40.91730 | 27.84793 | 9429 ft | 273 kts | 69° |
| 2026-05-05 08:28 | 40.92631 | 27.86865 | 9115 ft | 259 kts | 40° |
| 2026-05-05 08:28 | 40.94168 | 27.88032 | 9010 ft | 255 kts | 14° |
| 2026-05-05 08:28 | 40.95913 | 27.88292 | 9004 ft | 257 kts | 2° |
| 2026-05-05 08:29 | 40.97724 | 27.88347 | 8992 ft | 258 kts | 1° |
| 2026-05-05 08:29 | 40.99504 | 27.88369 | 8998 ft | 258 kts | 1° |
| 2026-05-05 08:29 | 41.01319 | 27.88373 | 9000 ft | 258 kts | 0° |
| 2026-05-05 08:30 | 41.04692 | 27.89200 | 9002 ft | 238 kts | 14° |
| 2026-05-05 08:30 | 41.06269 | 27.89832 | 8986 ft | 236 kts | 25° |
| 2026-05-05 08:30 | 41.07469 | 27.91307 | 8984 ft | 242 kts | 53° |
| 2026-05-05 08:30 | 41.08143 | 27.93373 | 9014 ft | 250 kts | 71° |
| 2026-05-05 08:31 | 41.08260 | 27.95709 | 8987 ft | 259 kts | 93° |
| 2026-05-05 08:31 | 41.07746 | 27.98012 | 9008 ft | 265 kts | 103° |
| 2026-05-05 08:31 | 41.07159 | 28.00332 | 8939 ft | 266 kts | 102° |
| 2026-05-05 08:31 | 41.06577 | 28.02669 | 8656 ft | 267 kts | 103° |
| 2026-05-05 08:32 | 41.06001 | 28.04984 | 8374 ft | 266 kts | 103° |
| 2026-05-05 08:32 | 41.05414 | 28.07343 | 8077 ft | 266 kts | 103° |
| 2026-05-05 08:32 | 41.04840 | 28.09657 | 7735 ft | 267 kts | 103° |
| 2026-05-05 08:32 | 41.04250 | 28.12027 | 7405 ft | 267 kts | 103° |
| 2026-05-05 08:33 | 41.03667 | 28.14369 | 7084 ft | 267 kts | 103° |
| 2026-05-05 08:33 | 41.03095 | 28.16659 | 6830 ft | 265 kts | 103° |
| 2026-05-05 08:33 | 41.02515 | 28.18973 | 6579 ft | 262 kts | 103° |
| 2026-05-05 08:33 | 41.01947 | 28.21236 | 6326 ft | 260 kts | 103° |
| 2026-05-05 08:34 | 41.01375 | 28.23518 | 6053 ft | 258 kts | 104° |
| 2026-05-05 08:34 | 41.00813 | 28.25757 | 5784 ft | 255 kts | 104° |
| 2026-05-05 08:34 | 41.00256 | 28.27971 | 5527 ft | 253 kts | 104° |
| 2026-05-05 08:34 | 40.99701 | 28.30183 | 5262 ft | 251 kts | 104° |
| 2026-05-05 08:35 | 40.99149 | 28.32378 | 5004 ft | 250 kts | 104° |
| 2026-05-05 08:35 | 40.98608 | 28.34529 | 4754 ft | 249 kts | 104° |
| 2026-05-05 08:35 | 40.98058 | 28.36714 | 4487 ft | 249 kts | 105° |
| 2026-05-05 08:35 | 40.97599 | 28.38899 | 4219 ft | 244 kts | 92° |
| 2026-05-05 08:36 | 40.97568 | 28.41127 | 3972 ft | 240 kts | 86° |
| 2026-05-05 08:36 | 40.97564 | 28.43312 | 3850 ft | 233 kts | 87° |
| 2026-05-05 08:36 | 40.97561 | 28.45423 | 3763 ft | 224 kts | 86° |
| 2026-05-05 08:36 | 40.97557 | 28.47445 | 3611 ft | 217 kts | 87° |
| 2026-05-05 08:37 | 40.97522 | 28.49423 | 3342 ft | 217 kts | 94° |
| 2026-05-05 08:37 | 40.97241 | 28.51363 | 3165 ft | 213 kts | 99° |
| 2026-05-05 08:37 | 40.96924 | 28.53279 | 3091 ft | 213 kts | 99° |
| 2026-05-05 08:37 | 40.96609 | 28.55182 | 2998 ft | 214 kts | 99° |
| 2026-05-05 08:38 | 40.96301 | 28.57111 | 2996 ft | 214 kts | 99° |
| 2026-05-05 08:38 | 40.96004 | 28.59014 | 2985 ft | 210 kts | 96° |
| 2026-05-05 08:38 | 40.95944 | 28.60921 | 2990 ft | 206 kts | 86° |
| 2026-05-05 08:38 | 40.95972 | 28.62826 | 3000 ft | 207 kts | 86° |
| 2026-05-05 08:39 | 40.95997 | 28.64738 | 2994 ft | 207 kts | 86° |